Time;durP1;ratioP1;P1;durP2;ratioP2;P2;SDS_P1;SDS_P2;PMS_P1;PMS_P2;Temp;Humidity;BMP_temperature;BMP_pressure;BME280_temperature;BME280_humidity;BME280_pressure;Samples;Min_cycle;Max_cycle;Signal;HPM_P1;HPM_P2
2023/05/15 00:02:04;;;;;;;6.10;3.40;;;;;;;7.63;100.00;91946.81;4951390;29;20118;-76
2023/05/15 00:04:31;;;;;;;5.18;3.25;;;;;;;7.60;100.00;91952.56;4952510;28;20127;-76
2023/05/15 00:06:57;;;;;;;6.43;4.57;;;;;;;7.59;100.00;91951.00;4952163;28;20118;-76
2023/05/15 00:09:22;;;;;;;10.70;6.15;;;;;;;7.60;100.00;91939.53;4952437;28;20404;-76
2023/05/15 00:11:48;;;;;;;9.25;6.88;;;;;;;7.64;100.00;91940.53;4934248;29;20035;-75
2023/05/15 00:14:13;;;;;;;12.43;7.45;;;;;;;7.67;100.00;91939.19;4950873;28;20039;-75
2023/05/15 00:16:39;;;;;;;11.73;7.03;;;;;;;7.68;100.00;91933.69;4934011;29;20038;-75
2023/05/15 00:19:05;;;;;;;8.93;6.53;;;;;;;7.67;100.00;91929.53;4953557;28;20126;-75
2023/05/15 00:21:30;;;;;;;10.10;6.88;;;;;;;7.67;100.00;91929.53;4940007;29;20030;-76
2023/05/15 00:23:57;;;;;;;10.55;7.00;;;;;;;7.68;100.00;91931.09;4955998;28;20046;-75
2023/05/15 00:26:23;;;;;;;11.93;8.13;;;;;;;7.70;100.00;91923.78;4923312;29;20122;-76
2023/05/15 00:28:49;;;;;;;14.35;8.50;;;;;;;7.72;100.00;91915.66;4953737;29;20040;-75
2023/05/15 00:31:16;;;;;;;13.95;9.27;;;;;;;7.76;100.00;91921.09;4956152;29;20039;-76
2023/05/15 00:33:42;;;;;;;14.20;9.65;;;;;;;7.79;100.00;91916.09;4922982;29;20588;-76
2023/05/15 00:36:08;;;;;;;12.60;8.25;;;;;;;7.79;100.00;91912.69;4938840;29;20039;-76
2023/05/15 00:38:34;;;;;;;12.10;7.50;;;;;;;7.78;100.00;91911.16;4946380;28;20043;-76
2023/05/15 00:41:05;;;;;;;11.82;7.82;;;;;;;7.76;100.00;91910.66;4938293;29;20122;-76
2023/05/15 00:43:31;;;;;;;16.63;8.43;;;;;;;7.75;100.00;91914.34;4955624;28;20493;-76
2023/05/15 00:45:59;;;;;;;12.68;8.48;;;;;;;7.72;100.00;91911.25;4955261;29;20470;-75
2023/05/15 00:48:26;;;;;;;10.50;7.63;;;;;;;7.71;100.00;91917.50;4953209;28;20035;-75
2023/05/15 00:50:52;;;;;;;16.27;8.20;;;;;;;7.70;100.00;91912.56;4953964;29;20039;-75
2023/05/15 00:53:18;;;;;;;10.55;7.18;;;;;;;7.68;100.00;91912.09;4924675;29;20147;-75
2023/05/15 00:55:46;;;;;;;14.30;7.88;;;;;;;7.64;100.00;91911.88;4935930;29;20119;-75
2023/05/15 00:58:14;;;;;;;11.77;7.80;;;;;;;7.63;100.00;91905.13;4934177;29;20087;-76
2023/05/15 01:00:42;;;;;;;12.27;7.55;;;;;;;7.60;100.00;91900.44;4934498;29;20024;-76
2023/05/15 01:03:08;;;;;;;10.70;7.32;;;;;;;7.55;100.00;91900.53;4950083;28;20474;-76
2023/05/15 01:05:34;;;;;;;10.55;7.35;;;;;;;7.54;100.00;91898.97;4934627;29;20062;-75
2023/05/15 01:08:09;;;;;;;13.98;7.30;;;;;;;7.49;100.00;91905.03;4936091;29;20035;-76
2023/05/15 01:10:35;;;;;;;10.52;7.25;;;;;;;7.47;100.00;91898.53;4926947;29;20043;-76
2023/05/15 01:13:02;;;;;;;11.15;7.40;;;;;;;7.53;100.00;91896.66;4934594;29;20042;-76
2023/05/15 01:15:28;;;;;;;12.88;7.20;;;;;;;7.53;100.00;91889.63;4934787;29;20087;-76
2023/05/15 01:17:54;;;;;;;16.48;7.43;;;;;;;7.56;100.00;91886.44;4936094;29;20032;-76
2023/05/15 01:20:21;;;;;;;12.45;8.07;;;;;;;7.59;100.00;91874.69;4934821;29;20114;-76
2023/05/15 01:23:25;;;;;;;13.32;8.50;;;;;;;7.60;100.00;91877.00;4935632;29;20058;-76
2023/05/15 01:26:21;;;;;;;12.63;8.07;;;;;;;7.62;100.00;91874.91;4934717;29;20027;-76
2023/05/15 01:29:00;;;;;;;11.63;7.82;;;;;;;7.63;100.00;91871.25;4934109;29;20160;-76
2023/05/15 01:31:31;;;;;;;12.60;9.05;;;;;;;7.63;100.00;91867.84;4932941;29;20032;-76
2023/05/15 01:34:01;;;;;;;10.02;7.35;;;;;;;7.62;100.00;91867.09;4935685;29;20055;-76
2023/05/15 01:36:38;;;;;;;12.00;8.00;;;;;;;7.60;100.00;91881.44;4950579;29;20402;-76
2023/05/15 01:39:05;;;;;;;13.07;8.38;;;;;;;7.58;100.00;91879.13;4949986;29;20075;-76
2023/05/15 01:41:40;;;;;;;10.20;7.57;;;;;;;7.59;100.00;91879.88;4917501;29;20143;-76
2023/05/15 01:44:21;;;;;;;10.98;7.65;;;;;;;7.57;100.00;91867.16;4934848;29;20034;-76
2023/05/15 01:46:51;;;;;;;12.80;8.10;;;;;;;7.54;100.00;91869.56;4948153;29;20035;-76
2023/05/15 01:49:18;;;;;;;10.65;7.65;;;;;;;7.49;100.00;91865.94;4935134;29;20130;-76
2023/05/15 01:51:48;;;;;;;13.90;8.38;;;;;;;7.46;100.00;91876.19;4916856;29;20043;-76
2023/05/15 01:54:15;;;;;;;10.82;7.38;;;;;;;7.45;100.00;91867.59;4933908;29;20145;-76
2023/05/15 01:56:44;;;;;;;11.90;7.95;;;;;;;7.41;100.00;91863.22;4932735;29;20437;-76
2023/05/15 01:59:13;;;;;;;10.57;7.45;;;;;;;7.39;100.00;91867.94;4933909;29;20031;-76
2023/05/15 02:01:40;;;;;;;12.23;8.35;;;;;;;7.33;100.00;91869.81;4949255;29;20501;-76
2023/05/15 02:04:07;;;;;;;10.88;7.47;;;;;;;7.28;100.00;91875.09;4917555;29;20098;-76
2023/05/15 02:06:33;;;;;;;11.15;8.07;;;;;;;7.24;100.00;91872.28;4927103;29;20473;-76
2023/05/15 02:09:01;;;;;;;12.55;7.68;;;;;;;7.22;100.00;91868.41;4949811;29;20083;-76
2023/05/15 02:11:26;;;;;;;10.20;7.53;;;;;;;7.21;100.00;91869.47;4949835;29;20036;-76
2023/05/15 02:13:55;;;;;;;14.30;8.23;;;;;;;7.21;100.00;91870.25;4933978;29;20391;-76
2023/05/15 02:16:21;;;;;;;11.52;7.68;;;;;;;7.21;100.00;91866.88;4949303;29;20070;-76
2023/05/15 02:18:47;;;;;;;12.48;7.95;;;;;;;7.21;100.00;91865.03;4934766;29;20459;-76
2023/05/15 02:21:14;;;;;;;12.75;8.32;;;;;;;7.22;100.00;91861.38;4933388;29;20042;-76
2023/05/15 02:23:41;;;;;;;12.68;7.95;;;;;;;7.19;100.00;91856.72;4948888;28;20058;-76
2023/05/15 02:26:37;;;;;;;11.13;8.07;;;;;;;7.19;100.00;91856.72;4933779;29;20028;-76
2023/05/15 02:29:22;;;;;;;13.65;7.57;;;;;;;7.16;100.00;91857.31;4949160;29;20039;-77
2023/05/15 02:32:14;;;;;;;12.40;7.60;;;;;;;7.13;100.00;91847.44;4949504;29;20043;-76
2023/05/15 02:34:45;;;;;;;11.90;7.88;;;;;;;7.13;100.00;91846.66;4923129;29;20092;-77
2023/05/15 02:37:16;;;;;;;11.63;7.72;;;;;;;7.12;100.00;91851.09;4931731;29;20127;-76
2023/05/15 02:39:44;;;;;;;11.48;7.53;;;;;;;7.13;100.00;91841.47;4934226;29;20031;-76
2023/05/15 02:42:13;;;;;;;11.50;7.90;;;;;;;7.12;100.00;91851.09;4932460;29;20039;-76
2023/05/15 02:44:40;;;;;;;11.55;7.78;;;;;;;7.12;100.00;91851.09;4932692;29;20039;-76
2023/05/15 02:47:07;;;;;;;10.88;7.38;;;;;;;7.12;100.00;91845.13;4948837;29;20063;-76
2023/05/15 02:49:32;;;;;;;11.65;7.88;;;;;;;7.11;100.00;91843.56;4932848;29;20464;-76
2023/05/15 02:51:58;;;;;;;16.95;7.47;;;;;;;7.08;100.00;91847.50;4948873;29;20053;-76
2023/05/15 02:54:24;;;;;;;11.27;7.28;;;;;;;7.05;100.00;91846.25;4933756;29;20441;-76
2023/05/15 02:56:50;;;;;;;10.70;7.47;;;;;;;6.93;100.00;91843.25;4913344;29;20482;-75
2023/05/15 02:59:18;;;;;;;10.98;5.38;;;;;;;6.87;100.00;91839.94;4945400;29;20031;-76
2023/05/15 03:01:48;;;;;;;7.57;4.07;;;;;;;6.80;100.00;91843.91;4932749;29;20043;-75
2023/05/15 03:04:14;;;;;;;6.10;3.67;;;;;;;6.75;100.00;91844.00;4948087;28;20050;-75
2023/05/15 03:06:39;;;;;;;8.20;5.05;;;;;;;6.72;100.00;91836.75;4916582;29;20337;-75
2023/05/15 03:09:05;;;;;;;9.48;5.30;;;;;;;6.69;100.00;91848.50;4933692;29;20046;-76
2023/05/15 03:11:31;;;;;;;6.43;4.38;;;;;;;6.68;100.00;91841.72;4933866;29;20044;-76
2023/05/15 03:13:58;;;;;;;5.82;3.72;;;;;;;6.68;100.00;91839.13;4916500;29;20036;-76
2023/05/15 03:16:25;;;;;;;6.63;3.30;;;;;;;6.67;100.00;91840.94;4948875;29;20049;-76
2023/05/15 03:18:51;;;;;;;4.75;3.15;;;;;;;6.66;100.00;91833.41;4948032;29;20036;-76
2023/05/15 03:21:17;;;;;;;4.28;2.50;;;;;;;6.67;100.00;91832.38;4932542;29;20039;-76
2023/05/15 03:23:43;;;;;;;4.80;2.42;;;;;;;6.65;100.00;91831.88;4931679;29;20450;-76
2023/05/15 03:26:08;;;;;;;3.63;2.28;;;;;;;6.65;100.00;91826.69;4948480;29;20040;-76
2023/05/15 03:28:34;;;;;;;3.42;2.00;;;;;;;6.65;100.00;91829.28;4932992;29;20042;-76
2023/05/15 03:31:00;;;;;;;4.88;2.75;;;;;;;6.63;100.00;91839.19;4916845;29;20494;-76
2023/05/15 03:33:25;;;;;;;5.13;2.95;;;;;;;6.62;100.00;91827.22;4934068;29;20056;-76
2023/05/15 03:35:51;;;;;;;4.75;2.90;;;;;;;6.61;100.00;91828.28;4948086;29;20048;-76
2023/05/15 03:38:17;;;;;;;3.80;2.28;;;;;;;6.64;100.00;91832.91;4931779;29;20027;-76
2023/05/15 03:40:42;;;;;;;3.70;2.00;;;;;;;6.68;100.00;91823.50;4933327;29;20044;-76
2023/05/15 03:43:08;;;;;;;2.53;1.70;;;;;;;6.72;100.00;91824.50;4933561;29;20043;-76
2023/05/15 03:45:34;;;;;;;1.48;1.10;;;;;;;6.93;100.00;91822.44;4932526;29;20044;-76
2023/05/15 03:48:00;;;;;;;2.20;1.30;;;;;;;7.15;100.00;91824.50;4947147;29;20036;-76
2023/05/15 03:50:25;;;;;;;2.75;1.40;;;;;;;7.35;100.00;91827.91;4939700;29;20040;-75
2023/05/15 03:52:51;;;;;;;2.35;1.40;;;;;;;7.32;100.00;91824.03;4933703;29;20110;-76
2023/05/15 03:55:17;;;;;;;6.38;1.70;;;;;;;7.30;100.00;91824.31;4939476;29;20222;-76
2023/05/15 03:57:42;;;;;;;3.20;1.60;;;;;;;7.22;100.00;91819.72;4939830;29;20090;-76
2023/05/15 04:00:09;;;;;;;1.85;1.20;;;;;;;7.14;100.00;91815.16;4939362;29;20030;-76
2023/05/15 04:02:39;;;;;;;1.92;1.13;;;;;;;7.18;100.00;91820.56;4939123;29;20126;-76
2023/05/15 04:05:05;;;;;;;1.23;1.02;;;;;;;7.29;100.00;91820.16;4939868;29;20031;-75
2023/05/15 04:07:35;;;;;;;1.48;1.10;;;;;;;7.52;100.00;91817.75;4941072;29;20485;-75
2023/05/15 04:10:01;;;;;;;1.80;1.13;;;;;;;7.66;100.00;91813.38;4939683;29;20568;-75
2023/05/15 04:12:31;;;;;;;1.25;1.00;;;;;;;8.06;100.00;91818.22;4939403;29;20039;-75
2023/05/15 04:15:12;;;;;;;3.92;1.20;;;;;;;8.10;100.00;91817.34;4935481;29;20042;-75
2023/05/15 04:17:37;;;;;;;1.20;1.10;;;;;;;8.18;100.00;91817.78;4932106;29;20039;-75
2023/05/15 04:20:04;;;;;;;1.65;1.20;;;;;;;8.23;100.00;91815.06;4937795;29;20035;-75
2023/05/15 04:22:30;;;;;;;1.65;1.05;;;;;;;8.34;100.00;91816.44;4938384;29;20087;-75
2023/05/15 04:24:56;;;;;;;2.05;1.15;;;;;;;8.41;100.00;91816.84;4934950;29;20494;-75
2023/05/15 04:27:21;;;;;;;1.40;1.10;;;;;;;8.41;100.00;91816.09;4951847;28;20035;-75
2023/05/15 04:29:47;;;;;;;1.70;1.20;;;;;;;8.53;100.00;91814.56;4937110;29;20505;-76
2023/05/15 04:32:13;;;;;;;2.65;0.98;;;;;;;8.60;100.00;91823.81;4937162;29;20088;-75
2023/05/15 04:34:39;;;;;;;1.45;1.10;;;;;;;8.72;100.00;91826.75;4937739;29;20043;-75
2023/05/15 04:37:06;;;;;;;2.00;1.15;;;;;;;8.79;100.00;91827.13;4939554;29;20043;-75
2023/05/15 04:39:31;;;;;;;1.52;0.90;;;;;;;8.91;100.00;91824.78;4938577;29;21832;-75
2023/05/15 04:41:57;;;;;;;1.35;1.10;;;;;;;9.00;100.00;91822.25;4938304;29;20035;-76
2023/05/15 04:44:22;;;;;;;1.75;1.13;;;;;;;9.18;100.00;91818.75;4936802;29;20742;-75
2023/05/15 04:46:48;;;;;;;1.77;1.23;;;;;;;9.29;100.00;91821.91;4938241;29;20046;-77
2023/05/15 04:49:13;;;;;;;1.40;1.00;;;;;;;9.42;100.00;91819.59;4938979;29;20040;-77
2023/05/15 04:51:40;;;;;;;2.42;1.00;;;;;;;9.40;100.00;91824.34;4936990;29;20039;-75
2023/05/15 04:54:06;;;;;;;1.80;1.13;;;;;;;9.42;100.00;91827.44;4936435;29;20066;-74
2023/05/15 04:56:32;;;;;;;1.52;1.00;;;;;;;9.45;100.00;91824.22;4937799;29;20043;-74
2023/05/15 04:58:57;;;;;;;1.00;0.80;;;;;;;9.48;100.00;91827.03;4918839;29;20036;-78
2023/05/15 05:01:23;;;;;;;1.42;1.00;;;;;;;9.53;100.00;91820.91;4933797;29;20103;-77
2023/05/15 05:03:49;;;;;;;1.67;1.10;;;;;;;9.65;100.00;91828.22;4940045;28;20032;-76
2023/05/15 05:06:14;;;;;;;4.75;1.30;;;;;;;9.72;100.00;91824.13;4934197;29;20094;-75
2023/05/15 05:08:40;;;;;;;1.33;1.10;;;;;;;9.77;100.00;91828.44;4933113;29;20090;-75
2023/05/15 05:11:06;;;;;;;1.35;1.20;;;;;;;9.88;100.00;91824.53;4931764;29;20123;-75
2023/05/15 05:13:31;;;;;;;4.78;1.17;;;;;;;9.96;100.00;91826.44;4932499;29;20024;-76
2023/05/15 05:15:57;;;;;;;1.80;1.30;;;;;;;10.06;99.72;91828.03;4934308;29;20087;-76
2023/05/15 05:18:22;;;;;;;2.25;1.35;;;;;;;10.17;98.76;91826.72;4933794;29;20035;-75
2023/05/15 05:20:49;;;;;;;3.03;1.15;;;;;;;10.30;96.01;91827.75;4934354;29;20553;-75
2023/05/15 05:23:15;;;;;;;1.70;1.30;;;;;;;10.47;93.00;91821.84;4934636;29;20106;-75
2023/05/15 05:25:40;;;;;;;2.08;1.23;;;;;;;10.50;92.44;91823.84;4936036;29;20039;-75
2023/05/15 05:28:06;;;;;;;1.50;1.20;;;;;;;10.57;92.52;91824.19;4920309;29;20435;-76
2023/05/15 05:30:32;;;;;;;1.50;1.00;;;;;;;10.70;91.70;91824.41;4935847;29;20406;-78
2023/05/15 05:32:58;;;;;;;1.58;1.20;;;;;;;10.83;89.51;91819.06;4937210;29;20529;-79
2023/05/15 05:35:24;;;;;;;1.77;1.20;;;;;;;10.92;90.56;91823.53;4920563;29;20028;-76
2023/05/15 05:37:50;;;;;;;1.63;1.10;;;;;;;11.01;86.71;91822.50;4937310;29;20050;-77
2023/05/15 05:40:16;;;;;;;2.05;1.30;;;;;;;11.16;86.20;91823.16;4937477;29;20031;-79
2023/05/15 05:42:42;;;;;;;1.85;1.23;;;;;;;11.28;86.38;91835.66;4937102;29;20032;-79
2023/05/15 05:45:08;;;;;;;2.00;1.10;;;;;;;11.38;86.29;91830.88;4954105;29;20111;-78
2023/05/15 05:47:33;;;;;;;1.88;1.20;;;;;;;11.49;84.91;91833.22;4946038;28;20050;-77
2023/05/15 05:49:59;;;;;;;2.63;1.42;;;;;;;11.64;80.25;91823.06;4937066;29;20119;-79
2023/05/15 05:52:24;;;;;;;4.85;1.90;;;;;;;11.81;76.97;91824.13;4936235;29;20060;-78
2023/05/15 05:54:50;;;;;;;4.50;1.45;;;;;;;12.51;73.03;91822.19;4937673;29;20068;-78
2023/05/15 05:57:17;;;;;;;3.17;1.30;;;;;;;13.60;69.79;91822.63;4937314;29;20394;-76
2023/05/15 05:59:42;;;;;;;3.60;1.20;;;;;;;14.97;63.68;91812.97;4936310;29;20091;-76
2023/05/15 06:02:08;;;;;;;1.60;1.10;;;;;;;15.83;59.18;91820.84;4935124;29;20046;-76
2023/05/15 06:04:34;;;;;;;5.80;1.20;;;;;;;16.43;48.17;91810.34;4934739;29;20071;-77
2023/05/15 06:07:00;;;;;;;1.27;1.00;;;;;;;16.98;49.64;91805.34;4951174;29;20485;-76
2023/05/15 06:09:26;;;;;;;2.10;1.10;;;;;;;17.47;44.03;91812.84;4936275;29;20043;-77
2023/05/15 06:11:52;;;;;;;1.50;1.02;;;;;;;18.14;47.54;91818.06;4936325;29;20031;-78
2023/05/15 06:14:18;;;;;;;1.75;1.08;;;;;;;18.63;46.39;91814.03;4952985;28;20044;-78
2023/05/15 06:16:43;;;;;;;1.35;1.00;;;;;;;18.65;45.05;91817.13;4938735;29;20043;-78
2023/05/15 06:19:09;;;;;;;2.53;1.15;;;;;;;19.27;41.73;91811.69;4921554;29;20062;-78
2023/05/15 06:21:34;;;;;;;1.77;1.17;;;;;;;19.52;46.15;91817.38;4939013;29;20039;-81
2023/05/15 06:24:00;;;;;;;2.72;1.38;;;;;;;19.82;48.16;91814.03;4939593;29;20047;-82
2023/05/15 06:26:26;;;;;;;3.33;1.17;;;;;;;20.06;46.94;91812.81;4941120;29;20044;-83
2023/05/15 06:28:51;;;;;;;2.42;1.20;;;;;;;20.27;45.78;91812.31;4942505;29;20032;-82
2023/05/15 06:31:17;;;;;;;1.67;1.00;;;;;;;19.93;42.88;91814.94;4925953;29;20130;-82
2023/05/15 06:33:42;;;;;;;2.38;1.10;;;;;;;20.10;41.96;91818.94;4924619;29;20035;-82
2023/05/15 06:36:08;;;;;;;1.85;1.10;;;;;;;19.93;44.68;91815.69;4940087;29;20027;-81
2023/05/15 06:38:33;;;;;;;1.52;1.00;;;;;;;19.80;42.31;91821.59;4936590;29;20077;-80
2023/05/15 06:40:59;;;;;;;1.38;1.00;;;;;;;19.68;42.84;91817.22;4939487;29;20032;-82
2023/05/15 06:43:25;;;;;;;1.75;1.10;;;;;;;19.29;41.27;91815.53;4937128;29;20134;-77
2023/05/15 06:45:50;;;;;;;1.92;1.05;;;;;;;18.82;49.10;91814.00;4935287;29;20043;-78
2023/05/15 06:48:16;;;;;;;1.55;1.10;;;;;;;18.58;46.82;91814.34;4933835;29;20050;-77
2023/05/15 06:50:41;;;;;;;1.58;1.05;;;;;;;18.50;42.98;91811.53;4934181;29;20525;-77
2023/05/15 06:53:07;;;;;;;2.92;1.13;;;;;;;18.27;47.99;91821.34;4932971;29;20050;-77
2023/05/15 06:55:35;;;;;;;1.20;0.90;;;;;;;18.05;47.29;91810.31;4947706;28;20040;-77
2023/05/15 06:58:00;;;;;;;1.27;1.00;;;;;;;17.75;46.04;91815.34;4935904;29;20038;-77
2023/05/15 07:00:26;;;;;;;1.00;0.90;;;;;;;17.23;44.94;91804.03;4947963;28;20118;-77
2023/05/15 07:02:52;;;;;;;2.50;0.98;;;;;;;17.57;50.54;91811.56;4934738;29;20043;-77
2023/05/15 07:05:17;;;;;;;1.45;1.00;;;;;;;17.88;47.73;91816.03;4949868;29;20103;-77
2023/05/15 07:07:43;;;;;;;1.98;1.10;;;;;;;17.69;46.31;91804.25;4934594;29;20474;-76
2023/05/15 07:10:09;;;;;;;1.52;0.93;;;;;;;17.68;43.56;91810.69;4934510;29;20517;-77
2023/05/15 07:12:34;;;;;;;1.70;1.10;;;;;;;17.65;42.42;91811.38;4934710;29;20039;-77
2023/05/15 07:15:00;;;;;;;1.60;0.90;;;;;;;17.13;44.66;91815.13;4935069;29;20027;-77
2023/05/15 07:17:25;;;;;;;3.42;1.23;;;;;;;16.33;43.87;91810.88;4932161;29;20047;-77
2023/05/15 07:19:51;;;;;;;3.88;1.10;;;;;;;16.74;44.48;91812.28;4934169;29;20039;-76
2023/05/15 07:22:16;;;;;;;1.30;1.10;;;;;;;16.67;46.09;91803.41;4935884;29;20031;-78
2023/05/15 07:24:42;;;;;;;2.90;0.77;;;;;;;16.49;45.17;91802.97;4916974;29;20043;-77
2023/05/15 07:27:07;;;;;;;2.83;1.20;;;;;;;16.70;44.83;91802.72;4934327;29;20044;-77
2023/05/15 07:29:33;;;;;;;1.48;1.00;;;;;;;17.10;45.52;91799.94;4934049;29;20046;-77
2023/05/15 07:31:59;;;;;;;1.92;1.38;;;;;;;17.11;46.16;91795.41;4936748;29;20524;-78
2023/05/15 07:34:24;;;;;;;2.05;1.30;;;;;;;17.05;44.38;91800.22;4957843;28;20038;-78
2023/05/15 07:36:50;;;;;;;1.67;1.10;;;;;;;16.87;46.08;91791.09;4940654;28;20103;-77
2023/05/15 07:39:17;;;;;;;1.92;1.10;;;;;;;16.88;45.84;91808.47;4956763;29;20100;-79
2023/05/15 07:41:42;;;;;;;1.25;0.95;;;;;;;17.18;43.80;91814.88;4924268;29;20031;-79
2023/05/15 07:44:11;;;;;;;1.20;0.93;;;;;;;17.16;42.69;91809.16;4941079;29;20098;-80
2023/05/15 07:46:37;;;;;;;1.33;1.00;;;;;;;16.87;44.05;91812.25;4939614;29;20047;-79
2023/05/15 07:49:03;;;;;;;1.67;1.13;;;;;;;17.01;46.01;91813.34;4939755;29;20075;-79
2023/05/15 07:51:29;;;;;;;1.98;1.00;;;;;;;17.47;43.19;91807.56;4940071;29;20075;-79
2023/05/15 07:53:54;;;;;;;3.15;1.27;;;;;;;17.56;45.37;91810.81;4954714;28;20044;-80
2023/05/15 07:56:24;;;;;;;2.90;1.17;;;;;;;17.51;40.75;91805.75;4940308;29;20130;-79
2023/05/15 07:58:49;;;;;;;1.75;1.00;;;;;;;17.11;41.09;91803.34;4940126;29;20490;-79
2023/05/15 08:01:15;;;;;;;1.90;1.10;;;;;;;17.42;45.31;91813.88;4940396;29;20043;-80
2023/05/15 08:03:40;;;;;;;3.08;1.10;;;;;;;17.56;42.52;91797.56;4938238;29;20541;-79
2023/05/15 08:06:08;;;;;;;2.35;1.00;;;;;;;17.67;44.19;91800.44;4940294;29;20071;-79
2023/05/15 08:08:34;;;;;;;2.33;1.23;;;;;;;17.91;42.66;91796.81;4923035;29;20418;-79
2023/05/15 08:11:00;;;;;;;5.00;1.30;;;;;;;17.91;48.25;91791.50;4922189;29;20028;-78
2023/05/15 08:13:26;;;;;;;1.23;1.00;;;;;;;17.58;40.21;91787.38;4937908;29;20056;-80
2023/05/15 08:15:52;;;;;;;1.65;1.15;;;;;;;17.31;40.55;91791.72;4937750;29;20062;-78
2023/05/15 08:18:17;;;;;;;1.23;1.08;;;;;;;17.46;42.45;91784.88;4953900;29;20142;-79
2023/05/15 08:20:43;;;;;;;1.80;0.90;;;;;;;17.89;42.58;91786.53;4937288;29;20514;-79
2023/05/15 08:23:10;;;;;;;1.02;0.90;;;;;;;18.11;41.46;91786.97;4938596;29;20462;-80
2023/05/15 08:25:36;;;;;;;1.23;0.93;;;;;;;17.92;39.49;91794.91;4957608;28;20571;-79
2023/05/15 08:28:03;;;;;;;0.80;0.80;;;;;;;17.83;40.49;91789.81;4943311;28;20119;-79
2023/05/15 08:30:28;;;;;;;0.77;0.77;;;;;;;18.14;40.82;91782.88;4938353;29;20031;-78
2023/05/15 08:32:54;;;;;;;10.60;1.60;;;;;;;18.16;40.20;91796.53;4958356;28;21551;-79
2023/05/15 08:35:19;;;;;;;11.02;1.90;;;;;;;18.04;40.58;91773.59;4937927;29;20036;-80
2023/05/15 08:37:45;;;;;;;11.65;1.67;;;;;;;17.74;41.22;91784.69;4932691;29;20032;-76
2023/05/15 08:40:11;;;;;;;17.17;2.95;;;;;;;17.98;42.11;91788.22;4931862;29;20421;-76
2023/05/15 08:42:43;;;;;;;2.85;1.50;;;;;;;17.92;40.97;91787.72;4934201;29;20050;-76
2023/05/15 08:45:09;;;;;;;0.90;0.80;;;;;;;17.87;39.83;91793.31;4934907;29;20123;-76
2023/05/15 08:47:38;;;;;;;0.77;0.70;;;;;;;17.68;40.56;91786.84;4934774;29;20590;-76
2023/05/15 08:50:15;;;;;;;3.75;0.88;;;;;;;17.88;39.53;91789.56;4937378;29;20027;-76
2023/05/15 08:52:45;;;;;;;2.35;0.80;;;;;;;18.38;41.33;91792.41;4934776;29;20070;-76
2023/05/15 08:55:13;;;;;;;0.82;0.70;;;;;;;17.98;37.78;91799.59;4939853;29;20099;-76
2023/05/15 08:57:40;;;;;;;9.50;1.05;;;;;;;17.86;39.99;91789.13;4934901;29;20032;-76
2023/05/15 09:00:07;;;;;;;0.80;0.80;;;;;;;17.67;40.47;91795.94;4935329;29;20043;-76
2023/05/15 09:02:40;;;;;;;1.52;0.80;;;;;;;18.13;39.96;91794.59;4934056;29;20067;-76
2023/05/15 09:05:07;;;;;;;13.90;1.83;;;;;;;18.50;41.15;91800.94;4937049;29;20031;-76
2023/05/15 09:07:33;;;;;;;8.73;1.80;;;;;;;18.35;38.80;91795.72;4930502;29;20095;-76
2023/05/15 09:10:01;;;;;;;1.27;0.80;;;;;;;18.22;40.54;91801.19;4931523;29;20122;-76
2023/05/15 09:12:27;;;;;;;1.80;0.90;;;;;;;18.15;38.07;91811.66;4933612;29;20047;-76
2023/05/15 09:15:16;;;;;;;1.20;1.10;;;;;;;18.17;38.58;91798.03;4935066;29;20035;-75
2023/05/15 09:17:43;;;;;;;0.73;0.60;;;;;;;18.04;37.34;91802.72;4935704;29;20110;-77
2023/05/15 09:20:31;;;;;;;2.08;1.17;;;;;;;18.25;39.30;91797.06;4934054;29;20023;-76
2023/05/15 09:22:58;;;;;;;3.20;1.27;;;;;;;18.76;40.47;91788.91;4934934;29;20058;-76
2023/05/15 09:25:38;;;;;;;1.58;0.82;;;;;;;18.51;38.16;91788.47;4929697;29;20036;-76
2023/05/15 09:28:24;;;;;;;1.45;1.00;;;;;;;18.52;37.97;91801.34;4937339;29;20038;-79
2023/05/15 09:30:59;;;;;;;2.75;0.85;;;;;;;18.64;35.83;91784.53;4942351;29;20059;-80
2023/05/15 09:33:35;;;;;;;5.50;0.85;;;;;;;18.56;37.86;91790.81;4942685;29;20043;-80
2023/05/15 09:36:02;;;;;;;1.08;0.98;;;;;;;18.33;38.18;91787.38;4942237;29;20035;-80
2023/05/15 09:38:29;;;;;;;0.95;0.70;;;;;;;18.16;37.14;91783.28;4942840;29;20038;-79
2023/05/15 09:41:06;;;;;;;1.30;0.93;;;;;;;18.25;39.22;91781.94;4943740;29;20040;-79
2023/05/15 09:43:40;;;;;;;1.38;0.77;;;;;;;18.04;38.12;91792.91;4941820;29;20095;-79
2023/05/15 09:46:11;;;;;;;2.97;0.80;;;;;;;18.15;39.39;91785.16;4956090;28;20046;-77
2023/05/15 09:48:37;;;;;;;1.42;0.73;;;;;;;18.08;38.39;91785.81;4935261;29;20063;-77
2023/05/15 09:51:06;;;;;;;0.93;0.80;;;;;;;18.33;36.93;91788.16;4936053;29;20036;-77
2023/05/15 09:53:32;;;;;;;1.58;0.98;;;;;;;18.29;38.06;91792.63;4936028;29;20063;-77
2023/05/15 09:55:57;;;;;;;1.15;0.88;;;;;;;18.46;37.05;91786.09;4935263;29;20047;-77
2023/05/15 09:58:23;;;;;;;1.00;0.77;;;;;;;18.39;36.69;91791.28;4935148;29;20043;-77
2023/05/15 10:00:48;;;;;;;1.90;1.00;;;;;;;18.63;35.27;91788.28;4936813;29;20106;-77
2023/05/15 10:03:15;;;;;;;1.63;1.52;;;;;;;18.55;36.95;91785.88;4936244;29;20405;-77
2023/05/15 10:05:41;;;;;;;1.08;0.98;;;;;;;18.63;38.44;91795.50;4937857;29;20485;-78
2023/05/15 10:08:07;;;;;;;2.03;1.00;;;;;;;18.58;34.99;91801.09;4952016;29;20057;-78
2023/05/15 10:10:33;;;;;;;1.13;0.90;;;;;;;18.69;35.54;91794.84;4937304;29;20039;-78
2023/05/15 10:13:03;;;;;;;1.20;0.80;;;;;;;18.67;35.76;91786.47;4937200;29;20049;-78
2023/05/15 10:15:29;;;;;;;1.83;0.85;;;;;;;18.51;36.14;91793.78;4940718;29;20090;-77
2023/05/15 10:17:55;;;;;;;1.50;0.90;;;;;;;18.60;36.20;91794.31;4935776;29;20048;-78
2023/05/15 10:20:22;;;;;;;1.17;0.90;;;;;;;18.65;35.92;91798.56;4937245;29;20052;-78
2023/05/15 10:22:50;;;;;;;1.08;0.80;;;;;;;18.73;35.12;91789.59;4937680;29;20781;-78
2023/05/15 10:25:59;;;;;;;0.90;0.80;;;;;;;18.51;37.20;91785.81;4937052;29;20024;-77
2023/05/15 10:28:27;;;;;;;2.58;0.80;;;;;;;18.55;35.29;91799.13;4904157;29;20149;-77
2023/05/15 10:30:54;;;;;;;1.40;0.90;;;;;;;18.52;34.57;91798.72;4943836;29;20071;-79
2023/05/15 10:33:20;;;;;;;2.05;1.10;;;;;;;18.81;36.63;91799.22;4952982;28;20111;-79
2023/05/15 10:35:47;;;;;;;1.45;0.90;;;;;;;19.13;34.83;91786.47;4952648;29;20118;-78
2023/05/15 10:38:14;;;;;;;4.25;1.17;;;;;;;19.28;34.92;91784.06;4919704;29;20043;-77
2023/05/15 10:40:40;;;;;;;0.93;0.82;;;;;;;19.02;34.69;91800.69;4936226;29;20479;-77
2023/05/15 10:43:10;;;;;;;3.00;1.10;;;;;;;18.95;36.63;91805.91;4926564;29;20048;-76
2023/05/15 10:45:36;;;;;;;1.52;1.10;;;;;;;19.18;36.02;91788.06;4936647;29;20035;-78
2023/05/15 10:48:04;;;;;;;1.50;0.90;;;;;;;18.92;33.88;91812.69;4937390;29;20039;-78
2023/05/15 10:50:30;;;;;;;1.55;0.90;;;;;;;19.03;32.94;91799.59;4951063;29;20114;-77
2023/05/15 10:52:55;;;;;;;0.95;0.80;;;;;;;19.06;34.71;91796.22;4936134;29;20056;-76
2023/05/15 10:55:22;;;;;;;1.80;0.98;;;;;;;19.11;34.76;91798.56;4951406;29;20039;-78
2023/05/15 10:57:48;;;;;;;1.55;1.00;;;;;;;18.72;33.52;91793.38;4935982;29;20066;-77
2023/05/15 11:00:22;;;;;;;1.40;0.98;;;;;;;19.17;34.16;91791.09;4936408;29;20032;-78
2023/05/15 11:02:52;;;;;;;1.85;1.10;;;;;;;19.06;32.67;91790.91;4935443;29;20040;-77
2023/05/15 11:05:18;;;;;;;1.23;0.95;;;;;;;19.24;35.32;91777.94;4935165;29;20031;-77
2023/05/15 11:08:24;;;;;;;1.60;0.90;;;;;;;18.93;32.95;91783.13;4936067;29;20039;-77
2023/05/15 11:10:50;;;;;;;1.75;0.90;;;;;;;18.47;32.25;91795.59;4935634;29;20032;-77
2023/05/15 11:13:16;;;;;;;2.08;1.30;;;;;;;18.89;34.89;91785.00;4934688;29;20051;-78
2023/05/15 11:15:46;;;;;;;1.88;1.00;;;;;;;19.29;34.08;91774.97;4918837;29;20039;-78
2023/05/15 11:18:12;;;;;;;1.38;1.00;;;;;;;19.36;35.23;91772.41;4935406;29;20401;-77
2023/05/15 11:21:01;;;;;;;1.95;0.95;;;;;;;19.17;32.84;91783.13;4934987;29;20035;-78
2023/05/15 11:23:26;;;;;;;1.48;0.98;;;;;;;19.38;33.88;91777.38;4935113;29;20505;-78
2023/05/15 11:25:54;;;;;;;2.15;1.20;;;;;;;19.26;34.09;91784.41;4936177;29;20198;-78
2023/05/15 11:28:24;;;;;;;1.38;1.08;;;;;;;19.07;33.92;91765.91;4969265;28;20468;-77
2023/05/15 11:30:53;;;;;;;2.13;1.10;;;;;;;19.18;32.06;91777.44;4956441;28;20107;-79
2023/05/15 11:33:20;;;;;;;3.22;1.20;;;;;;;19.30;33.04;91774.63;4945548;29;20036;-77
2023/05/15 11:35:46;;;;;;;3.53;1.15;;;;;;;19.09;34.29;91775.06;4914225;29;20036;-78